Time;durP1;ratioP1;P1;durP2;ratioP2;P2;SDS_P1;SDS_P2;PMS_P1;PMS_P2;Temp;Humidity;BMP_temperature;BMP_pressure;BME280_temperature;BME280_humidity;BME280_pressure;Samples;Min_cycle;Max_cycle;Signal;HPM_P1;HPM_P2
2022/03/17 00:01:40;;;;;;;19.13;12.83;;;10.50;99.90;;;;;;5076210;28;20029;-61
2022/03/17 00:04:08;;;;;;;24.27;13.60;;;10.50;99.90;;;;;;5074897;28;20120;-62
2022/03/17 00:06:34;;;;;;;20.75;13.85;;;10.50;99.90;;;;;;5076043;28;20108;-64
2022/03/17 00:09:01;;;;;;;17.95;13.25;;;10.50;99.90;;;;;;5075733;28;20032;-63
2022/03/17 00:11:28;;;;;;;20.45;13.30;;;10.50;99.90;;;;;;5076278;28;20028;-63
2022/03/17 00:13:54;;;;;;;20.67;13.77;;;10.50;99.90;;;;;;5076221;28;20021;-62
2022/03/17 00:16:20;;;;;;;22.27;14.30;;;10.50;99.90;;;;;;5097301;22;20492;-66
2022/03/17 00:18:46;;;;;;;18.70;13.35;;;10.50;99.90;;;;;;5074109;28;20430;-66
2022/03/17 00:21:12;;;;;;;21.63;13.90;;;10.50;99.90;;;;;;5075508;28;20099;-66
2022/03/17 00:23:38;;;;;;;20.67;14.90;;;10.50;99.90;;;;;;5073984;28;20065;-65
2022/03/17 00:26:03;;;;;;;19.73;14.03;;;10.50;99.90;;;;;;5075206;28;20258;-67
2022/03/17 00:28:29;;;;;;;19.70;13.60;;;10.50;99.90;;;;;;5075396;28;20032;-65
2022/03/17 00:30:56;;;;;;;23.58;13.88;;;10.50;99.90;;;;;;5075281;28;20263;-65
2022/03/17 00:33:21;;;;;;;21.60;13.82;;;10.40;99.90;;;;;;5075219;28;20029;-65
2022/03/17 00:35:47;;;;;;;19.73;13.83;;;10.40;99.90;;;;;;5073585;28;20116;-66
2022/03/17 00:38:16;;;;;;;20.53;13.83;;;10.40;99.90;;;;;;5075406;28;20024;-65
2022/03/17 00:40:44;;;;;;;23.40;14.52;;;10.40;99.90;;;;;;5078300;28;20017;-66
2022/03/17 00:43:12;;;;;;;22.55;13.82;;;10.30;99.90;;;;;;5075646;28;20028;-66
2022/03/17 00:45:38;;;;;;;20.73;14.50;;;10.40;99.90;;;;;;5075003;28;20090;-66
2022/03/17 00:48:05;;;;;;;19.85;13.90;;;10.40;99.90;;;;;;5074951;28;20056;-66
2022/03/17 00:50:31;;;;;;;21.08;14.63;;;10.30;99.90;;;;;;5074989;28;20024;-66
2022/03/17 00:52:56;;;;;;;20.08;13.75;;;10.30;99.90;;;;;;5074964;28;20029;-65
2022/03/17 00:55:22;;;;;;;21.00;14.97;;;10.30;99.90;;;;;;5073675;28;20111;-64
2022/03/17 00:57:49;;;;;;;21.83;14.77;;;10.30;99.90;;;;;;5077738;28;20020;-66
2022/03/17 01:00:16;;;;;;;21.33;14.63;;;10.30;99.90;;;;;;5080707;28;20039;-66
2022/03/17 01:02:43;;;;;;;22.08;14.98;;;10.30;99.90;;;;;;5074250;28;20016;-65
2022/03/17 01:05:10;;;;;;;24.13;14.63;;;10.30;99.90;;;;;;5073162;28;20139;-65
2022/03/17 01:07:37;;;;;;;23.30;14.52;;;10.30;99.90;;;;;;5073319;28;20054;-64
2022/03/17 01:10:04;;;;;;;21.65;14.75;;;10.30;99.90;;;;;;5073195;28;20558;-65
2022/03/17 01:12:30;;;;;;;21.92;14.73;;;10.30;99.90;;;;;;5074282;28;20028;-65
2022/03/17 01:14:56;;;;;;;22.77;14.77;;;10.30;99.90;;;;;;5072716;28;20021;-66
2022/03/17 01:17:22;;;;;;;23.70;15.45;;;10.30;99.90;;;;;;5074818;28;20111;-65
2022/03/17 01:19:48;;;;;;;23.88;15.55;;;10.30;99.90;;;;;;5075495;28;20477;-65
2022/03/17 01:22:14;;;;;;;24.80;15.03;;;10.30;99.90;;;;;;5074511;28;20051;-66
2022/03/17 01:24:40;;;;;;;22.17;15.07;;;10.30;99.90;;;;;;5074234;28;20021;-66
2022/03/17 01:27:05;;;;;;;22.10;15.48;;;10.30;99.90;;;;;;5074681;28;20028;-66
2022/03/17 01:29:31;;;;;;;22.17;15.87;;;10.30;99.90;;;;;;5074673;28;20103;-65
2022/03/17 01:31:57;;;;;;;25.00;16.03;;;10.30;99.90;;;;;;5073396;28;20130;-67
2022/03/17 01:34:22;;;;;;;25.05;15.77;;;10.30;99.90;;;;;;5074419;28;20037;-66
2022/03/17 01:36:48;;;;;;;27.17;16.17;;;10.30;99.90;;;;;;5073078;28;20124;-64
2022/03/17 01:39:13;;;;;;;25.53;16.47;;;10.30;99.90;;;;;;5074784;28;20032;-66
2022/03/17 01:41:39;;;;;;;24.07;16.10;;;10.30;99.90;;;;;;5074608;28;20100;-65
2022/03/17 01:44:05;;;;;;;26.73;16.40;;;10.20;99.90;;;;;;5074326;28;20469;-65
2022/03/17 01:47:26;;;;;;;27.92;16.00;;;10.20;99.90;;;;;;5074334;28;20028;-65
2022/03/17 01:49:17;;;;;;;23.00;14.98;;;10.20;99.90;;;;;;5074522;28;20504;-64
2022/03/17 01:51:45;;;;;;;22.80;16.77;;;10.30;99.90;;;;;;5074247;28;20063;-65
2022/03/17 01:54:11;;;;;;;25.17;16.40;;;10.30;99.90;;;;;;5074720;28;20029;-64
2022/03/17 01:56:37;;;;;;;24.08;16.15;;;10.30;99.90;;;;;;5072484;28;20032;-65
2022/03/17 01:59:03;;;;;;;;;;;10.40;99.90;;;;;;5074619;28;20032;-65
2022/03/17 02:01:29;;;;;;;22.65;16.15;;;10.60;99.90;;;;;;5074671;28;20286;-65
2022/03/17 02:03:56;;;;;;;20.75;15.43;;;10.50;99.90;;;;;;5073859;28;20078;-63
2022/03/17 02:06:23;;;;;;;23.73;14.95;;;10.60;99.90;;;;;;5073396;28;20028;-66
2022/03/17 02:08:49;;;;;;;22.50;16.27;;;10.60;99.90;;;;;;5073433;28;20035;-65
2022/03/17 02:13:59;;;;;;;22.88;15.30;;;10.60;99.90;;;;;;5075303;28;20656;-65
2022/03/17 02:16:27;;;;;;;20.48;13.30;;;10.60;99.90;;;;;;5073567;28;20083;-65
2022/03/17 02:18:53;;;;;;;19.05;13.00;;;10.60;99.90;;;;;;5071753;28;20537;-65
2022/03/17 02:21:19;;;;;;;20.40;11.77;;;10.60;99.90;;;;;;5073608;28;20063;-65
2022/03/17 02:26:30;;;;;;;20.58;12.57;;;10.50;99.90;;;;;;5073363;28;20067;-64
2022/03/17 02:28:58;;;;;;;21.63;12.52;;;10.40;99.90;;;;;;5072532;28;20032;-64
2022/03/17 02:31:24;;;;;;;27.17;15.95;;;10.40;99.90;;;;;;5073658;28;20020;-65
2022/03/17 02:33:51;;;;;;;26.48;14.65;;;10.30;99.90;;;;;;5073688;28;20070;-65
2022/03/17 02:36:18;;;;;;;24.33;14.13;;;10.20;99.90;;;;;;5073254;28;20438;-64
2022/03/17 02:38:44;;;;;;;25.73;14.43;;;10.30;99.90;;;;;;5073135;28;20388;-64
2022/03/17 02:41:09;;;;;;;29.48;15.85;;;10.20;99.90;;;;;;5073000;28;20025;-66
2022/03/17 02:43:37;;;;;;;27.02;16.60;;;10.20;99.90;;;;;;5072939;28;20028;-66
2022/03/17 02:46:03;;;;;;;29.95;16.67;;;10.20;99.90;;;;;;5071691;28;20025;-65
2022/03/17 02:48:28;;;;;;;26.83;16.85;;;10.30;99.90;;;;;;5073353;28;20465;-65
2022/03/17 02:50:54;;;;;;;32.63;17.40;;;10.20;99.90;;;;;;5071900;28;20033;-65
2022/03/17 02:53:20;;;;;;;27.65;16.90;;;10.30;99.90;;;;;;5073374;28;20501;-65
2022/03/17 02:55:45;;;;;;;35.10;19.03;;;10.30;99.90;;;;;;5072682;28;20029;-65
2022/03/17 02:58:12;;;;;;;30.75;17.90;;;10.10;99.90;;;;;;5072108;28;20458;-65
2022/03/17 03:00:38;;;;;;;40.25;21.85;;;10.00;99.90;;;;;;5077115;28;20032;-65
2022/03/17 03:03:06;;;;;;;40.35;22.38;;;9.80;99.90;;;;;;5075500;28;20514;-65
2022/03/17 03:05:31;;;;;;;41.88;22.10;;;9.80;99.90;;;;;;5076737;28;20382;-65
2022/03/17 03:07:57;;;;;;;39.22;22.25;;;9.70;99.90;;;;;;5077446;28;20016;-65
2022/03/17 03:10:23;;;;;;;36.93;20.73;;;9.70;99.90;;;;;;5078822;28;20076;-65
2022/03/17 03:12:48;;;;;;;38.03;22.63;;;9.70;99.90;;;;;;5077157;28;20269;-65
2022/03/17 03:15:14;;;;;;;35.33;20.83;;;9.90;99.90;;;;;;5074864;28;20282;-65
2022/03/17 03:17:40;;;;;;;42.75;22.05;;;9.80;99.90;;;;;;5076471;28;20033;-66
2022/03/17 03:20:07;;;;;;;33.97;21.23;;;9.90;99.90;;;;;;5076247;28;20035;-64
2022/03/17 03:22:39;;;;;;;37.30;21.05;;;9.90;99.90;;;;;;5076286;28;20024;-65
2022/03/17 03:25:06;;;;;;;38.55;21.15;;;10.00;99.90;;;;;;5076250;28;20469;-64
2022/03/17 03:27:32;;;;;;;39.90;21.52;;;9.90;99.90;;;;;;5076435;28;20048;-66
2022/03/17 03:29:58;;;;;;;44.10;22.20;;;9.90;99.90;;;;;;5076276;28;20051;-64
2022/03/17 03:32:25;;;;;;;34.72;19.52;;;10.00;99.90;;;;;;5076321;28;20084;-65
2022/03/17 03:34:51;;;;;;;38.45;21.20;;;9.80;99.90;;;;;;5076769;28;20025;-64
2022/03/17 03:37:23;;;;;;;;;;;9.70;99.90;;;;;;5077056;28;20028;-66
2022/03/17 03:39:57;;;;;;;38.15;20.75;;;9.70;99.90;;;;;;5076001;28;19908;-65
2022/03/17 03:42:24;;;;;;;41.30;22.60;;;9.70;99.90;;;;;;5075141;28;20023;-65
2022/03/17 03:44:51;;;;;;;40.80;22.10;;;9.60;99.90;;;;;;5075944;28;20060;-64
2022/03/17 03:47:17;;;;;;;40.58;21.08;;;9.50;99.90;;;;;;5075826;28;20020;-64
2022/03/17 03:49:44;;;;;;;36.75;22.20;;;9.40;99.90;;;;;;5074437;28;20021;-65
2022/03/17 03:52:14;;;;;;;37.67;22.17;;;9.50;99.90;;;;;;5075582;28;20044;-65
2022/03/17 03:54:40;;;;;;;39.65;21.15;;;9.60;99.90;;;;;;5074378;28;20055;-65
2022/03/17 03:57:07;;;;;;;38.75;21.67;;;9.50;99.90;;;;;;5075802;28;20028;-65
2022/03/17 03:59:33;;;;;;;45.83;23.80;;;9.60;99.90;;;;;;5075472;28;20024;-65
2022/03/17 04:02:07;;;;;;;46.20;25.25;;;9.60;99.90;;;;;;5075618;28;20506;-65
2022/03/17 04:04:34;;;;;;;43.15;25.13;;;9.50;99.90;;;;;;5076438;28;20020;-65
2022/03/17 04:07:02;;;;;;;42.42;24.50;;;9.60;99.90;;;;;;5078252;28;20037;-65
2022/03/17 04:09:30;;;;;;;44.03;25.42;;;9.60;99.90;;;;;;5076115;28;20038;-65
2022/03/17 04:11:56;;;;;;;47.00;25.58;;;9.50;99.90;;;;;;5075396;28;20032;-65
2022/03/17 04:14:22;;;;;;;46.88;26.38;;;9.50;99.90;;;;;;5075502;28;20103;-65
2022/03/17 04:16:49;;;;;;;48.40;24.42;;;9.60;99.90;;;;;;5075164;28;20409;-66
2022/03/17 04:19:17;;;;;;;44.75;26.05;;;9.60;99.90;;;;;;5075419;28;20480;-65
2022/03/17 04:21:44;;;;;;;42.55;25.05;;;9.60;99.90;;;;;;5075267;28;20025;-65
2022/03/17 04:24:10;;;;;;;47.30;25.98;;;9.50;99.90;;;;;;5074923;28;20024;-65
2022/03/17 04:26:36;;;;;;;47.37;26.83;;;9.50;99.90;;;;;;5073748;28;20111;-65
2022/03/17 04:29:01;;;;;;;49.00;26.25;;;9.40;99.90;;;;;;5075088;28;20028;-66
2022/03/17 04:31:28;;;;;;;46.23;26.60;;;9.40;99.90;;;;;;5075056;28;20025;-65
2022/03/17 04:33:55;;;;;;;50.17;27.35;;;9.40;99.90;;;;;;5073568;28;20110;-65
2022/03/17 04:36:21;;;;;;;50.17;27.40;;;9.40;99.90;;;;;;5074833;28;20499;-66
2022/03/17 04:38:47;;;;;;;51.22;28.02;;;9.60;99.90;;;;;;5075038;28;20515;-65
2022/03/17 04:41:13;;;;;;;48.08;27.75;;;9.40;99.90;;;;;;5075013;28;20063;-66
2022/03/17 04:43:39;;;;;;;51.15;27.65;;;9.40;99.90;;;;;;5074781;28;20078;-65
2022/03/17 04:46:09;;;;;;;53.42;28.15;;;9.30;99.90;;;;;;5074557;28;20028;-65
2022/03/17 04:48:35;;;;;;;52.85;27.88;;;9.30;99.90;;;;;;5073232;28;20124;-65
2022/03/17 04:51:01;;;;;;;53.55;29.42;;;9.40;99.90;;;;;;5074662;28;20029;-65
2022/03/17 04:53:32;;;;;;;50.25;27.77;;;9.40;99.90;;;;;;5074612;28;20392;-65
2022/03/17 04:56:03;;;;;;;54.10;29.02;;;9.50;99.90;;;;;;5074470;28;20035;-65
2022/03/17 04:58:31;;;;;;;52.78;28.92;;;9.50;99.90;;;;;;5074731;28;20035;-65
2022/03/17 05:00:58;;;;;;;51.75;29.85;;;9.40;99.90;;;;;;5074446;28;20078;-65
2022/03/17 05:03:24;;;;;;;50.88;28.33;;;9.50;99.90;;;;;;5074469;28;20063;-65
2022/03/17 05:05:50;;;;;;;52.97;29.15;;;9.40;99.90;;;;;;5074632;28;20070;-65
2022/03/17 05:08:16;;;;;;;53.65;28.40;;;9.50;99.90;;;;;;5075163;28;20020;-67
2022/03/17 05:10:43;;;;;;;53.53;29.38;;;9.50;99.90;;;;;;5075567;28;20511;-65
2022/03/17 05:13:12;;;;;;;50.60;28.58;;;9.50;99.90;;;;;;5074346;28;20516;-65
2022/03/17 05:15:38;;;;;;;54.35;29.00;;;9.50;99.90;;;;;;5074239;28;20056;-66
2022/03/17 05:18:05;;;;;;;53.97;29.92;;;9.50;99.90;;;;;;5074500;28;20032;-65
2022/03/17 05:20:31;;;;;;;55.13;28.02;;;9.50;99.90;;;;;;5074006;28;20025;-65
2022/03/17 05:22:57;;;;;;;54.70;28.02;;;9.50;99.90;;;;;;5074273;28;20020;-65
2022/03/17 05:25:23;;;;;;;50.95;28.58;;;9.50;99.90;;;;;;5073002;28;20021;-65
2022/03/17 05:27:49;;;;;;;51.95;28.58;;;9.50;99.90;;;;;;5074496;28;20042;-65
2022/03/17 05:30:17;;;;;;;53.08;29.98;;;9.70;99.90;;;;;;5073993;28;20037;-64
2022/03/17 05:32:45;;;;;;;55.75;28.40;;;9.80;99.90;;;;;;5072523;28;20025;-65
2022/03/17 05:35:12;;;;;;;54.42;29.80;;;9.80;99.90;;;;;;5072464;28;20111;-65
2022/03/17 05:37:39;;;;;;;60.83;31.42;;;9.70;99.90;;;;;;5074156;28;20028;-65
2022/03/17 05:40:09;;;;;;;56.42;31.08;;;9.60;99.90;;;;;;5072479;28;20025;-65
2022/03/17 05:42:35;;;;;;;50.65;29.08;;;9.50;99.90;;;;;;5072512;28;20027;-65
2022/03/17 05:45:02;;;;;;;57.65;31.75;;;9.50;99.90;;;;;;5074396;28;20499;-65
2022/03/17 05:47:44;;;;;;;59.53;33.47;;;9.50;99.90;;;;;;5075337;28;20016;-64
2022/03/17 05:50:12;;;;;;;59.88;31.67;;;9.50;99.90;;;;;;5074717;28;20395;-65
2022/03/17 05:52:42;;;;;;;62.13;31.58;;;9.50;99.90;;;;;;5073822;28;20020;-65
2022/03/17 05:55:12;;;;;;;48.50;28.05;;;9.50;99.90;;;;;;5073317;28;20108;-64
2022/03/17 05:57:43;;;;;;;53.97;29.75;;;9.50;99.90;;;;;;5073746;28;20077;-64
2022/03/17 06:00:12;;;;;;;87.93;45.63;;;9.50;99.90;;;;;;5073609;28;20032;-65
2022/03/17 06:02:39;;;;;;;49.72;28.58;;;9.60;99.90;;;;;;5073614;28;20020;-65
2022/03/17 06:05:06;;;;;;;46.42;28.63;;;9.60;99.90;;;;;;5073696;28;20052;-65
2022/03/17 06:07:39;;;;;;;49.70;28.13;;;9.50;99.90;;;;;;5075085;28;20025;-65
2022/03/17 06:10:07;;;;;;;49.80;28.30;;;9.60;99.90;;;;;;5075114;28;20016;-65
2022/03/17 06:12:33;;;;;;;53.13;28.40;;;9.60;99.90;;;;;;5074175;28;20429;-64
2022/03/17 06:14:59;;;;;;;55.42;32.10;;;9.70;99.90;;;;;;5071468;28;20115;-64
2022/03/17 06:17:38;;;;;;;71.55;37.42;;;9.60;99.90;;;;;;5073885;28;20060;-65
2022/03/17 06:20:05;;;;;;;52.60;28.92;;;9.60;99.90;;;;;;5072907;28;20032;-65
2022/03/17 06:22:30;;;;;;;52.25;30.05;;;9.70;99.90;;;;;;5073208;28;20025;-66
2022/03/17 06:24:56;;;;;;;54.17;30.07;;;9.70;99.90;;;;;;5072991;28;20550;-66
2022/03/17 06:27:21;;;;;;;57.70;30.77;;;9.70;99.90;;;;;;5073093;28;20033;-66
2022/03/17 06:29:47;;;;;;;57.10;31.57;;;9.70;99.90;;;;;;5073154;28;20448;-66
2022/03/17 06:32:13;;;;;;;49.35;27.75;;;9.60;99.90;;;;;;5076495;28;20047;-66
2022/03/17 06:34:38;;;;;;;51.60;28.97;;;9.60;99.90;;;;;;5075025;28;20028;-65
2022/03/17 06:37:04;;;;;;;52.57;28.10;;;9.60;99.90;;;;;;5072461;28;20032;-64
2022/03/17 06:39:30;;;;;;;58.47;30.63;;;9.60;99.90;;;;;;5072883;28;20031;-69
2022/03/17 06:41:55;;;;;;;81.63;44.30;;;9.70;99.90;;;;;;5073055;28;20021;-67
2022/03/17 06:44:21;;;;;;;63.67;31.73;;;9.60;99.90;;;;;;5072247;28;20348;-67
2022/03/17 06:46:46;;;;;;;60.83;29.93;;;9.50;99.90;;;;;;5072728;28;20080;-65
2022/03/17 06:49:12;;;;;;;68.63;38.40;;;9.50;99.90;;;;;;5073041;28;20082;-65
2022/03/17 06:51:38;;;;;;;53.73;32.43;;;9.50;99.90;;;;;;5072939;28;20024;-65
2022/03/17 06:54:03;;;;;;;50.43;30.47;;;9.50;99.90;;;;;;5072845;28;20477;-65
2022/03/17 06:56:30;;;;;;;62.20;35.00;;;9.60;99.90;;;;;;5072622;28;20074;-65
2022/03/17 06:58:55;;;;;;;51.38;29.75;;;9.50;99.90;;;;;;5072814;28;20275;-65
2022/03/17 07:01:21;;;;;;;57.47;30.73;;;9.60;99.90;;;;;;5072742;28;20530;-65
2022/03/17 07:03:46;;;;;;;47.80;27.63;;;9.60;99.90;;;;;;5072697;28;20028;-64
2022/03/17 07:06:12;;;;;;;53.63;29.43;;;9.60;99.90;;;;;;5071203;28;20049;-64
2022/03/17 07:17:56;;;;;;;52.03;27.48;;;9.60;99.90;;;;;;5915725;22;20049;-65
2022/03/17 07:20:23;;;;;;;46.92;28.05;;;9.60;99.90;;;;;;5052107;28;20451;-66
2022/03/17 07:22:50;;;;;;;46.38;27.05;;;9.50;99.90;;;;;;5050800;28;20029;-66
2022/03/17 07:25:20;;;;;;;48.45;27.80;;;9.50;99.90;;;;;;5052059;28;20100;-65
2022/03/17 07:27:47;;;;;;;56.03;29.42;;;9.60;99.90;;;;;;5050610;28;20182;-65
2022/03/17 07:30:22;;;;;;;54.03;29.77;;;9.60;99.90;;;;;;5053087;28;20028;-65
2022/03/17 07:32:52;;;;;;;47.92;28.33;;;9.60;99.90;;;;;;5056358;28;20051;-64
2022/03/17 07:35:18;;;;;;;50.88;29.50;;;9.60;99.90;;;;;;5053481;28;20025;-66
2022/03/17 07:37:44;;;;;;;52.83;29.30;;;9.70;99.90;;;;;;5053693;28;20120;-65
2022/03/17 07:40:10;;;;;;;54.95;30.38;;;9.60;99.90;;;;;;5052240;28;20108;-65
2022/03/17 07:42:35;;;;;;;53.40;30.60;;;9.70;99.90;;;;;;5052149;28;20029;-65
2022/03/17 07:45:01;;;;;;;54.87;30.33;;;9.70;99.90;;;;;;5052598;28;20082;-65
2022/03/17 07:47:28;;;;;;;49.30;29.70;;;9.80;99.90;;;;;;5055834;28;20495;-65
2022/03/17 07:49:53;;;;;;;;;;;9.80;99.90;;;;;;5056186;28;20527;-66
2022/03/17 07:52:19;;;;;;;51.97;29.77;;;9.80;99.90;;;;;;5055461;28;19904;-66
2022/03/17 07:54:46;;;;;;;54.30;30.40;;;9.90;99.90;;;;;;5056007;28;20025;-67
2022/03/17 07:57:12;;;;;;;53.63;30.55;;;10.00;99.90;;;;;;5055695;28;20032;-66
2022/03/17 07:59:39;;;;;;;51.53;30.67;;;10.10;99.90;;;;;;5056319;28;20028;-66
2022/03/17 08:02:05;;;;;;;46.42;28.38;;;10.10;99.90;;;;;;5055371;28;20029;-66
2022/03/17 08:04:31;;;;;;;47.95;29.35;;;10.20;99.90;;;;;;5055891;28;20445;-65
2022/03/17 08:07:00;;;;;;;49.65;29.40;;;10.40;99.90;;;;;;5058416;28;20032;-66
2022/03/17 08:09:26;;;;;;;45.38;28.30;;;10.40;99.90;;;;;;5058265;28;20219;-66
2022/03/17 08:11:52;;;;;;;48.47;28.17;;;10.40;99.90;;;;;;5055538;28;20108;-65
2022/03/17 08:14:18;;;;;;;48.37;28.47;;;10.40;99.90;;;;;;5055443;28;20109;-65
2022/03/17 08:16:44;;;;;;;44.25;28.33;;;10.40;99.90;;;;;;5055821;28;20032;-67
2022/03/17 08:19:10;;;;;;;46.00;28.65;;;10.40;99.90;;;;;;5055378;28;20021;-66
2022/03/17 08:21:36;;;;;;;46.10;28.85;;;10.50;99.90;;;;;;5055527;28;20029;-65
2022/03/17 08:24:02;;;;;;;46.92;29.92;;;10.50;99.90;;;;;;5055486;28;20083;-66
2022/03/17 08:26:28;;;;;;;49.00;30.92;;;10.50;99.90;;;;;;5054920;28;20091;-66
2022/03/17 08:28:53;;;;;;;47.17;29.87;;;10.60;99.90;;;;;;5054848;28;20028;-66
2022/03/17 08:31:19;;;;;;;46.33;29.13;;;10.60;99.90;;;;;;5054884;28;20260;-66
2022/03/17 08:33:44;;;;;;;47.70;28.33;;;10.70;99.90;;;;;;5053606;28;20036;-66
2022/03/17 08:36:10;;;;;;;49.90;30.63;;;10.80;99.90;;;;;;5055192;28;20028;-65
2022/03/17 08:38:35;;;;;;;47.17;28.73;;;10.80;99.90;;;;;;5053285;28;20089;-65
2022/03/17 08:41:01;;;;;;;48.37;28.60;;;10.80;99.90;;;;;;5054824;28;20039;-65
2022/03/17 08:43:27;;;;;;;46.00;29.20;;;10.90;99.90;;;;;;5054750;28;20028;-65
2022/03/17 08:51:28;;;;;;;50.70;28.95;;;11.00;99.90;;;;;;5055055;28;20485;-65
2022/03/17 08:53:53;;;;;;;50.97;30.15;;;11.00;99.90;;;;;;5054361;28;20028;-65
2022/03/17 08:56:19;;;;;;;44.83;29.02;;;11.10;99.90;;;;;;5054194;28;20497;-65
2022/03/17 08:58:45;;;;;;;46.63;30.40;;;11.10;99.90;;;;;;5054762;28;20132;-65
2022/03/17 09:01:11;;;;;;;44.28;27.83;;;11.20;99.90;;;;;;5052764;28;20025;-66
2022/03/17 09:03:36;;;;;;;46.88;29.02;;;11.20;99.90;;;;;;5054250;28;20028;-66
2022/03/17 09:06:02;;;;;;;46.20;30.27;;;11.10;99.90;;;;;;5054907;28;20025;-66
2022/03/17 09:08:28;;;;;;;46.30;29.63;;;11.20;99.90;;;;;;5052692;28;20143;-66
2022/03/17 09:10:57;;;;;;;49.22;30.30;;;11.20;99.90;;;;;;5052927;28;20043;-64
2022/03/17 09:13:26;;;;;;;42.33;28.02;;;11.20;99.90;;;;;;5054249;28;20036;-65
2022/03/17 09:15:53;;;;;;;44.53;28.65;;;11.30;99.90;;;;;;5054162;28;20437;-65
2022/03/17 09:18:21;;;;;;;46.10;29.20;;;11.40;99.90;;;;;;5054277;28;20075;-66
2022/03/17 09:20:47;;;;;;;44.60;29.45;;;11.50;99.90;;;;;;5054267;28;20051;-66
2022/03/17 09:23:13;;;;;;;45.65;29.77;;;11.40;99.90;;;;;;5056233;28;20021;-66
2022/03/17 09:25:39;;;;;;;49.95;29.20;;;11.40;99.90;;;;;;5056475;28;20530;-66
2022/03/17 09:28:05;;;;;;;45.95;29.70;;;11.40;99.90;;;;;;5055993;28;20020;-66
2022/03/17 09:30:30;;;;;;;46.38;28.90;;;11.40;99.90;;;;;;5053654;28;20033;-65
2022/03/17 09:32:58;;;;;;;45.42;29.70;;;11.40;99.90;;;;;;5054331;28;20056;-65
2022/03/17 09:35:25;;;;;;;48.90;31.08;;;11.40;99.90;;;;;;5054328;28;20025;-66
2022/03/17 09:37:51;;;;;;;42.90;29.95;;;11.40;99.90;;;;;;5054327;28;20049;-65
2022/03/17 09:40:17;;;;;;;41.67;28.95;;;11.40;99.90;;;;;;5054207;28;20109;-66
2022/03/17 09:42:43;;;;;;;43.95;28.70;;;11.40;99.90;;;;;;5054282;28;20432;-67
2022/03/17 09:45:10;;;;;;;44.58;29.45;;;11.40;99.90;;;;;;5053963;28;20029;-66
2022/03/17 09:47:40;;;;;;;44.20;29.83;;;11.40;99.90;;;;;;5053408;28;20104;-65
2022/03/17 09:50:08;;;;;;;39.83;27.50;;;11.50;99.90;;;;;;5053564;28;20025;-66
2022/03/17 09:52:39;;;;;;;41.83;29.67;;;11.60;99.90;;;;;;5053533;28;20025;-66
2022/03/17 09:55:07;;;;;;;44.40;29.50;;;11.60;99.90;;;;;;5053884;28;20045;-66
2022/03/17 09:57:33;;;;;;;49.33;30.63;;;11.70;99.90;;;;;;5054152;28;20031;-66
2022/03/17 09:59:58;;;;;;;41.45;29.23;;;11.70;99.90;;;;;;5053952;28;20021;-65
2022/03/17 10:02:25;;;;;;;42.73;29.83;;;11.70;99.90;;;;;;5053792;28;20489;-66
2022/03/17 10:04:52;;;;;;;42.58;29.60;;;11.80;99.90;;;;;;5053741;28;20025;-66
2022/03/17 10:07:18;;;;;;;;;;;11.80;99.90;;;;;;5053888;28;20039;-64
2022/03/17 10:09:47;;;;;;;40.92;28.25;;;11.80;99.90;;;;;;5053020;28;19924;-65
2022/03/17 10:12:14;;;;;;;40.45;28.38;;;11.90;99.90;;;;;;5053492;28;20520;-66
2022/03/17 10:14:49;;;;;;;40.42;28.65;;;12.00;99.90;;;;;;5053197;28;20055;-65
2022/03/17 10:17:35;;;;;;;40.72;28.27;;;12.00;99.90;;;;;;5053186;28;20501;-65
2022/03/17 10:20:22;;;;;;;42.78;27.35;;;12.10;99.90;;;;;;5053017;28;20083;-66
2022/03/17 10:22:56;;;;;;;40.75;28.67;;;12.10;99.90;;;;;;5053155;28;20017;-66
2022/03/17 10:25:24;;;;;;;45.67;29.85;;;12.00;99.90;;;;;;5053283;28;20036;-66
2022/03/17 10:27:50;;;;;;;40.42;27.20;;;12.00;99.90;;;;;;5052802;28;20102;-66
2022/03/17 10:30:34;;;;;;;38.40;27.55;;;12.00;99.90;;;;;;5053121;28;20036;-65
2022/03/17 10:33:15;;;;;;;40.53;27.80;;;12.10;99.90;;;;;;5053777;28;20128;-67
2022/03/17 10:35:49;;;;;;;37.80;26.38;;;12.20;99.90;;;;;;5052995;28;20028;-67
2022/03/17 10:38:22;;;;;;;40.17;27.63;;;12.40;99.90;;;;;;5053000;28;20021;-66
2022/03/17 10:41:03;;;;;;;37.97;25.00;;;12.40;99.90;;;;;;5052751;28;20029;-66
2022/03/17 10:43:29;;;;;;;33.75;24.77;;;12.50;99.90;;;;;;5052728;28;20032;-66
2022/03/17 10:46:15;;;;;;;41.47;26.43;;;12.60;99.90;;;;;;5052568;28;20021;-66
2022/03/17 10:49:07;;;;;;;36.70;24.23;;;12.70;99.90;;;;;;5052531;28;20330;-65
2022/03/17 10:51:37;;;;;;;35.55;24.70;;;12.70;99.90;;;;;;5049989;28;20041;-65
2022/03/17 10:54:11;;;;;;;39.15;25.20;;;12.80;99.90;;;;;;5052781;28;20025;-66
2022/03/17 10:56:38;;;;;;;36.50;24.95;;;12.70;99.90;;;;;;5052848;28;20021;-65
2022/03/17 10:59:07;;;;;;;40.28;25.60;;;12.80;99.90;;;;;;5052638;28;20036;-65
2022/03/17 11:01:39;;;;;;;37.88;25.30;;;12.90;99.90;;;;;;5053142;28;20099;-66
2022/03/17 11:04:06;;;;;;;38.90;25.30;;;13.00;99.90;;;;;;5053098;28;20377;-66
2022/03/17 11:06:32;;;;;;;;;;;13.00;99.90;;;;;;5053468;28;20078;-65
2022/03/17 11:09:01;;;;;;;35.13;23.65;;;13.30;99.90;;;;;;5053101;28;19905;-66
2022/03/17 11:11:29;;;;;;;32.15;23.88;;;13.60;99.90;;;;;;5053024;28;20421;-66
2022/03/17 11:13:59;;;;;;;32.50;24.20;;;13.80;99.90;;;;;;5052659;28;20029;-65
2022/03/17 11:16:46;;;;;;;34.75;23.60;;;13.90;99.90;;;;;;5052902;28;20095;-65
2022/03/17 11:19:17;;;;;;;38.05;24.15;;;14.20;99.90;;;;;;5053061;28;20021;-65
2022/03/17 11:21:48;;;;;;;35.65;23.27;;;14.30;99.90;;;;;;5056512;28;20119;-65
2022/03/17 11:24:21;;;;;;;34.35;22.20;;;14.20;99.90;;;;;;5055407;28;20035;-65
2022/03/17 11:26:47;;;;;;;33.47;22.40;;;14.20;99.90;;;;;;5054717;28;20028;-66
2022/03/17 11:29:17;;;;;;;34.17;24.10;;;14.20;99.90;;;;;;5055943;28;20029;-66
2022/03/17 11:31:55;;;;;;;33.35;23.63;;;14.10;99.90;;;;;;5055962;28;20027;-66
2022/03/17 11:34:37;;;;;;;35.15;25.70;;;14.00;99.90;;;;;;5056166;28;20386;-66
2022/03/17 11:37:16;;;;;;;31.88;23.83;;;14.00;99.90;;;;;;5056015;28;20406;-65
2022/03/17 11:40:05;;;;;;;40.13;26.02;;;13.90;99.90;;;;;;5055814;28;20389;-65
2022/03/17 11:42:41;;;;;;;38.45;27.27;;;13.90;99.90;;;;;;5056638;28;20023;-66
2022/03/17 11:45:16;;;;;;;39.60;26.67;;;13.80;99.90;;;;;;5056637;28;20102;-65
2022/03/17 11:47:45;;;;;;;40.75;25.83;;;13.80;99.90;;;;;;5054848;28;20401;-65
2022/03/17 11:50:37;;;;;;;42.88;28.85;;;13.70;99.90;;;;;;5055695;28;20473;-65
2022/03/17 11:53:27;;;;;;;39.83;26.85;;;13.60;99.90;;;;;;5056100;28;20404;-65
2022/03/17 11:55:55;;;;;;;42.72;28.52;;;13.50;99.90;;;;;;5055282;28;20498;-65
2022/03/17 11:58:37;;;;;;;41.28;28.40;;;13.30;99.90;;;;;;5054473;28;20044;-67
2022/03/17 12:01:29;;;;;;;42.22;27.98;;;13.30;99.90;;;;;;5055930;28;20025;-65
2022/03/17 12:04:07;;;;;;;38.95;28.10;;;13.20;99.90;;;;;;5056403;28;20017;-66
2022/03/17 12:06:35;;;;;;;40.05;27.73;;;13.20;99.90;;;;;;5055928;28;20551;-66
2022/03/17 12:09:12;;;;;;;41.90;28.52;;;13.40;99.90;;;;;;5054249;28;20033;-65
2022/03/17 12:11:44;;;;;;;44.63;30.23;;;13.40;99.90;;;;;;5055673;28;20033;-66
2022/03/17 12:14:25;;;;;;;37.88;27.15;;;13.40;99.90;;;;;;5055200;28;20017;-65
2022/03/17 12:17:22;;;;;;;40.83;28.60;;;13.40;99.90;;;;;;5055686;28;20021;-66
2022/03/17 12:20:04;;;;;;;46.83;29.40;;;13.30;99.90;;;;;;5043247;28;20087;-66
2022/03/17 12:22:33;;;;;;;40.88;27.25;;;13.30;99.90;;;;;;5055748;28;20036;-65
2022/03/17 12:25:01;;;;;;;39.33;26.95;;;13.20;99.90;;;;;;5055429;28;20063;-67
2022/03/17 12:27:33;;;;;;;35.70;25.35;;;13.10;99.90;;;;;;5055876;28;20017;-66
2022/03/17 12:30:08;;;;;;;36.22;25.25;;;13.00;99.90;;;;;;5055513;28;20025;-66
2022/03/17 12:32:35;;;;;;;40.70;26.27;;;13.00;99.90;;;;;;5056140;28;20175;-66
2022/03/17 12:35:02;;;;;;;38.05;26.63;;;13.10;99.90;;;;;;5055963;28;20025;-65
2022/03/17 12:37:30;;;;;;;38.50;26.02;;;13.10;99.90;;;;;;5054936;28;20025;-66
2022/03/17 12:39:58;;;;;;;33.95;23.95;;;13.20;99.90;;;;;;5055015;28;20112;-66
2022/03/17 12:42:26;;;;;;;35.85;24.67;;;13.20;99.90;;;;;;5055236;28;20381;-66
2022/03/17 12:44:54;;;;;;;36.72;24.88;;;13.20;99.90;;;;;;5055275;28;20091;-69
2022/03/17 12:47:21;;;;;;;39.67;26.60;;;13.20;99.90;;;;;;5053432;28;20021;-66
2022/03/17 12:49:48;;;;;;;37.78;26.02;;;13.20;99.90;;;;;;5054721;28;20017;-69
2022/03/17 12:52:32;;;;;;;34.00;25.00;;;13.30;99.90;;;;;;5053592;28;20505;-67
2022/03/17 12:55:00;;;;;;;34.75;25.35;;;13.30;99.90;;;;;;5053879;28;20083;-67
2022/03/17 12:57:28;;;;;;;38.50;25.85;;;13.20;99.90;;;;;;5054252;28;20033;-68
2022/03/17 12:59:54;;;;;;;39.22;25.67;;;13.30;99.90;;;;;;5054180;28;20069;-68